createdAt,value
2022-12-01T00:01:44.115Z,4.18
2022-12-01T00:04:10.621Z,4.14
2022-12-01T00:06:37.049Z,4.18
2022-12-01T00:09:22.076Z,4.16
2022-12-01T00:11:48.575Z,4.03
2022-12-01T00:14:16.271Z,4.03
2022-12-01T00:16:44.396Z,3.98
2022-12-01T00:19:10.943Z,3.89
2022-12-01T00:21:37.308Z,3.89
2022-12-01T00:24:03.873Z,3.84
2022-12-01T00:26:30.264Z,3.80
2022-12-01T00:28:58.023Z,3.80
2022-12-01T00:31:24.633Z,3.85
2022-12-01T00:33:51.173Z,3.84
2022-12-01T00:36:17.681Z,3.73
2022-12-01T00:38:44.054Z,3.55
2022-12-01T00:41:10.424Z,3.56
2022-12-01T00:43:36.855Z,3.60
2022-12-01T00:46:03.319Z,3.62
2022-12-01T00:48:29.808Z,3.52
2022-12-01T00:50:56.343Z,3.53
2022-12-01T00:53:22.937Z,3.58
2022-12-01T00:55:49.386Z,3.55
2022-12-01T00:58:15.809Z,3.52
2022-12-01T01:00:42.864Z,3.45
2022-12-01T01:03:09.783Z,3.41
2022-12-01T01:05:37.015Z,3.32
2022-12-01T01:08:07.258Z,3.33
2022-12-01T01:10:33.911Z,3.33
2022-12-01T01:13:00.291Z,3.32
2022-12-01T01:15:26.658Z,3.35
2022-12-01T01:17:53.056Z,3.29
2022-12-01T01:20:19.420Z,3.23
2022-12-01T01:22:45.782Z,3.11
2022-12-01T01:25:12.155Z,3.12
2022-12-01T01:27:38.593Z,3.15
2022-12-01T01:30:05.728Z,3.15
2022-12-01T01:32:32.124Z,3.14
2022-12-01T01:34:58.587Z,3.15
2022-12-01T01:37:24.947Z,3.18
2022-12-01T01:39:51.462Z,3.17
2022-12-01T01:42:18.858Z,3.05
2022-12-01T01:44:52.309Z,3.12
2022-12-01T01:47:25.661Z,3.17
2022-12-01T01:49:52.935Z,3.15
2022-12-01T01:52:19.306Z,3.10
2022-12-01T01:54:48.045Z,3.11
2022-12-01T01:57:15.456Z,3.04
2022-12-01T01:59:48.494Z,3.07
2022-12-01T02:02:15.171Z,3.08
2022-12-01T02:04:49.814Z,3.10
2022-12-01T02:07:17.831Z,3.06
2022-12-01T02:09:44.277Z,3.08
2022-12-01T02:12:26.395Z,3.11
2022-12-01T02:15:08.256Z,3.06
2022-12-01T02:17:42.968Z,3.09
2022-12-01T02:20:28.087Z,3.11
2022-12-01T02:23:20.230Z,3.04
2022-12-01T02:25:48.555Z,2.99
2022-12-01T02:28:59.517Z,2.94
2022-12-01T02:31:31.570Z,2.91
2022-12-01T02:33:59.335Z,3.02
2022-12-01T02:36:35.853Z,3.01
2022-12-01T02:39:12.029Z,3.03
2022-12-01T02:42:04.309Z,3.10
2022-12-01T02:44:34.330Z,3.15
2022-12-01T02:47:03.235Z,3.12
2022-12-01T02:49:34.841Z,3.09
2022-12-01T02:52:01.239Z,3.12
2022-12-01T02:54:29.120Z,3.09
2022-12-01T02:56:55.485Z,3.00
2022-12-01T02:59:21.821Z,2.93
2022-12-01T03:02:24.725Z,2.84
2022-12-01T03:05:09.582Z,2.87
2022-12-01T03:07:45.013Z,2.94
2022-12-01T03:10:27.693Z,3.01
2022-12-01T03:13:09.577Z,2.98
2022-12-01T03:15:40.528Z,3.01
2022-12-01T03:18:09.778Z,3.09
2022-12-01T03:20:59.349Z,2.90
2022-12-01T03:23:28.659Z,2.95
2022-12-01T03:25:55.444Z,3.00
2022-12-01T03:28:28.707Z,3.03
2022-12-01T03:30:57.117Z,3.07
2022-12-01T03:33:30.216Z,3.03
2022-12-01T03:36:09.571Z,3.05
2022-12-01T03:38:36.273Z,2.95
2022-12-01T03:41:07.237Z,2.95
2022-12-01T03:43:35.311Z,2.93
2022-12-01T03:46:12.541Z,2.88
2022-12-01T03:48:39.369Z,2.82
2022-12-01T03:51:14.097Z,2.68
2022-12-01T03:54:00.469Z,2.68
2022-12-01T03:56:29.352Z,2.65
2022-12-01T03:58:56.688Z,2.72
2022-12-01T04:01:23.365Z,2.73
2022-12-01T04:03:49.735Z,2.78
2022-12-01T04:06:16.081Z,2.88
2022-12-01T04:08:42.432Z,2.75
2022-12-01T04:11:32.443Z,2.79
2022-12-01T04:13:59.306Z,2.64
2022-12-01T04:16:25.719Z,2.73
2022-12-01T04:18:52.104Z,2.80
2022-12-01T04:21:18.502Z,2.80
2022-12-01T04:24:00.083Z,2.80
2022-12-01T04:26:27.518Z,2.78
2022-12-01T04:28:53.867Z,2.87
2022-12-01T04:31:20.308Z,2.83
2022-12-01T04:33:46.709Z,2.84
2022-12-01T04:36:13.078Z,2.75
2022-12-01T04:38:39.437Z,2.81
2022-12-01T04:41:12.220Z,2.74
2022-12-01T04:43:38.651Z,2.81
2022-12-01T04:46:05.313Z,2.82
2022-12-01T04:48:31.762Z,2.78
2022-12-01T04:50:58.374Z,2.73
2022-12-01T04:53:24.880Z,2.57
2022-12-01T04:55:51.286Z,2.65
2022-12-01T04:58:17.659Z,2.63
2022-12-01T05:00:44.150Z,2.60
2022-12-01T05:03:14.876Z,2.72
2022-12-01T05:05:41.621Z,2.74
2022-12-01T05:08:08.023Z,2.82
2022-12-01T05:10:37.904Z,2.69
2022-12-01T05:13:04.968Z,2.75
2022-12-01T05:15:31.580Z,2.75
2022-12-01T05:17:58.016Z,2.69
2022-12-01T05:20:44.712Z,2.62
2022-12-01T05:23:16.540Z,2.61
2022-12-01T05:25:43.523Z,2.65
2022-12-01T05:28:09.889Z,2.58
2022-12-01T05:30:36.268Z,2.43
2022-12-01T05:33:03.313Z,2.33
2022-12-01T05:35:29.748Z,2.42
2022-12-01T05:37:56.209Z,2.53
2022-12-01T05:40:22.596Z,2.55
2022-12-01T05:42:49.011Z,2.49
2022-12-01T05:45:15.419Z,2.55
2022-12-01T05:47:41.780Z,2.54
2022-12-01T05:50:08.522Z,2.59
2022-12-01T05:52:37.852Z,2.38
2022-12-01T05:55:04.675Z,2.52
2022-12-01T05:57:31.837Z,2.49
2022-12-01T05:59:58.195Z,2.46
2022-12-01T06:02:26.745Z,2.41
2022-12-01T06:04:53.381Z,2.30
2022-12-01T06:07:20.847Z,2.30
2022-12-01T06:09:47.516Z,2.20
2022-12-01T06:12:14.342Z,2.26
2022-12-01T06:14:40.676Z,2.14
2022-12-01T06:17:07.045Z,2.30
2022-12-01T06:19:33.388Z,2.45
2022-12-01T06:21:59.783Z,2.57
2022-12-01T06:24:26.116Z,2.63
2022-12-01T06:26:52.453Z,2.41
2022-12-01T06:29:18.846Z,2.45
2022-12-01T06:31:45.206Z,2.46
2022-12-01T06:34:11.703Z,2.47
2022-12-01T06:36:38.057Z,2.40
2022-12-01T06:39:10.015Z,2.26
2022-12-01T06:41:37.421Z,2.38
2022-12-01T06:44:03.946Z,2.35
2022-12-01T06:46:30.635Z,2.44
2022-12-01T06:48:57.102Z,2.38
2022-12-01T06:51:23.448Z,2.40
2022-12-01T06:53:58.653Z,2.33
2022-12-01T06:56:28.584Z,2.34
2022-12-01T06:58:55.096Z,2.39
2022-12-01T07:01:21.779Z,2.43
2022-12-01T07:03:49.063Z,2.46
2022-12-01T07:06:15.481Z,2.51
2022-12-01T07:08:41.863Z,2.57
2022-12-01T07:11:09.758Z,2.46
2022-12-01T07:13:36.188Z,2.33
2022-12-01T07:16:03.429Z,2.38
2022-12-01T07:18:30.090Z,2.31
2022-12-01T07:21:03.377Z,2.36
2022-12-01T07:23:29.834Z,2.42
2022-12-01T07:26:06.706Z,2.45
2022-12-01T07:28:33.051Z,2.46
2022-12-01T07:31:10.869Z,2.43
2022-12-01T07:33:37.543Z,2.50
2022-12-01T07:36:04.569Z,2.57
2022-12-01T07:38:31.787Z,2.58
2022-12-01T07:41:08.989Z,2.61
2022-12-01T07:43:35.521Z,2.60
2022-12-01T07:46:06.302Z,2.55
2022-12-01T07:48:32.767Z,2.60
2022-12-01T07:50:59.153Z,2.66
2022-12-01T07:53:25.568Z,2.68
2022-12-01T07:55:51.933Z,2.62
2022-12-01T07:58:18.297Z,2.68
2022-12-01T08:00:44.653Z,2.70
2022-12-01T08:03:11.049Z,2.69
2022-12-01T08:05:37.460Z,2.68
2022-12-01T08:08:04.073Z,2.64
2022-12-01T08:10:30.544Z,2.64
2022-12-01T08:12:56.887Z,2.65
2022-12-01T08:15:23.348Z,2.54
2022-12-01T08:17:49.747Z,2.60
2022-12-01T08:20:20.812Z,2.65
2022-12-01T08:22:50.003Z,2.67
2022-12-01T08:25:16.439Z,2.68
2022-12-01T08:27:42.795Z,2.52
2022-12-01T08:30:09.660Z,2.54
2022-12-01T08:32:36.020Z,2.62
2022-12-01T08:35:02.396Z,2.69
2022-12-01T08:37:28.766Z,2.71
2022-12-01T08:39:55.167Z,2.72
2022-12-01T08:42:21.697Z,2.74
2022-12-01T08:44:48.105Z,2.68
2022-12-01T08:47:18.730Z,2.77
2022-12-01T08:49:45.423Z,2.79
2022-12-01T08:52:11.781Z,2.81
2022-12-01T08:54:38.124Z,2.82
2022-12-01T08:57:04.496Z,2.85
2022-12-01T08:59:30.875Z,2.83
2022-12-01T09:01:57.462Z,2.87
2022-12-01T09:04:24.901Z,2.87
2022-12-01T09:06:52.032Z,2.73
2022-12-01T09:09:22.803Z,2.72
2022-12-01T09:11:49.258Z,2.80
2022-12-01T09:14:16.373Z,2.81
2022-12-01T09:16:43.326Z,2.84
2022-12-01T09:19:11.457Z,2.88
2022-12-01T09:21:39.461Z,2.95
2022-12-01T09:24:06.721Z,2.91
2022-12-01T09:26:33.652Z,2.94
2022-12-01T09:29:02.714Z,2.79
2022-12-01T09:31:29.266Z,2.86
2022-12-01T09:34:06.150Z,2.92
2022-12-01T09:36:33.152Z,2.96
2022-12-01T09:38:59.641Z,2.91
2022-12-01T09:41:36.857Z,2.91
2022-12-01T09:44:41.908Z,3.01
2022-12-01T09:47:18.993Z,3.04
2022-12-01T09:49:58.410Z,3.06
2022-12-01T09:52:26.118Z,3.08
2022-12-01T09:54:54.464Z,3.10
2022-12-01T09:57:31.227Z,3.13
2022-12-01T09:59:58.626Z,3.17
2022-12-01T10:02:54.349Z,3.13
2022-12-01T10:05:22.697Z,3.06
2022-12-01T10:07:58.919Z,3.04
2022-12-01T10:10:30.298Z,3.08
2022-12-01T10:12:56.714Z,3.02
2022-12-01T10:15:32.052Z,2.98
2022-12-01T10:18:36.368Z,3.00
2022-12-01T10:21:19.705Z,3.01
2022-12-01T10:24:23.148Z,2.91
2022-12-01T10:26:54.440Z,2.91
2022-12-01T10:29:28.485Z,2.96
2022-12-01T10:31:57.911Z,2.89
2022-12-01T10:34:27.238Z,2.89
2022-12-01T10:36:53.682Z,2.86
2022-12-01T10:39:36.239Z,2.91
2022-12-01T10:42:30.764Z,2.88
2022-12-01T10:44:57.420Z,2.84
2022-12-01T10:47:25.419Z,2.84
2022-12-01T10:49:52.297Z,2.83
2022-12-01T10:52:32.869Z,2.72
2022-12-01T10:54:59.609Z,2.75
2022-12-01T10:57:26.869Z,2.72
2022-12-01T11:00:04.287Z,2.75
2022-12-01T11:02:30.932Z,2.83
2022-12-01T11:04:59.395Z,2.87
2022-12-01T11:07:32.381Z,2.89
2022-12-01T11:10:04.485Z,2.80
2022-12-01T11:12:30.893Z,2.76
2022-12-01T11:14:57.377Z,2.77
2022-12-01T11:17:25.792Z,2.86
2022-12-01T11:19:52.689Z,2.80
2022-12-01T11:22:28.995Z,2.86
2022-12-01T11:24:55.331Z,2.99
2022-12-01T11:27:26.871Z,3.06
2022-12-01T11:29:58.048Z,3.11
2022-12-01T11:32:32.730Z,3.09
2022-12-01T11:35:27.222Z,2.94
2022-12-01T11:38:27.930Z,2.84
2022-12-01T11:40:49.503Z,2.93
2022-12-01T11:43:23.398Z,2.96
2022-12-01T11:45:49.859Z,2.98
2022-12-01T11:48:25.640Z,3.00
2022-12-01T11:51:26.495Z,3.09
2022-12-01T11:54:20.524Z,3.18
2022-12-01T11:56:52.764Z,3.22
2022-12-01T11:59:30.918Z,3.22
2022-12-01T12:02:00.291Z,3.23
2022-12-01T12:04:32.535Z,3.25
2022-12-01T12:07:17.856Z,3.28
2022-12-01T12:09:59.608Z,3.21
2022-12-01T12:12:35.022Z,3.17
2022-12-01T12:15:15.044Z,3.15
2022-12-01T12:17:53.698Z,2.91
2022-12-01T12:20:24.713Z,2.92
2022-12-01T12:23:11.028Z,3.01
2022-12-01T12:25:56.049Z,3.09
2022-12-01T12:28:31.513Z,3.16
2022-12-01T12:31:14.013Z,3.09
2022-12-01T12:33:47.790Z,2.91
2022-12-01T12:36:17.130Z,2.85
2022-12-01T12:38:53.729Z,2.90
2022-12-01T12:41:29.373Z,2.96
2022-12-01T12:44:05.027Z,2.90
2022-12-01T12:46:43.747Z,2.86
2022-12-01T12:49:20.545Z,2.96
2022-12-01T12:52:09.267Z,2.92
2022-12-01T12:55:03.920Z,2.88
2022-12-01T12:57:38.805Z,2.88
2022-12-01T13:00:27.284Z,2.97
2022-12-01T13:03:07.162Z,2.91
2022-12-01T13:05:43.801Z,2.88
2022-12-01T13:08:13.216Z,2.95
2022-12-01T13:10:49.119Z,3.02
2022-12-01T13:13:37.541Z,3.07
2022-12-01T13:16:05.025Z,2.97
2022-12-01T13:18:53.647Z,2.96
2022-12-01T13:21:20.887Z,2.99
2022-12-01T13:23:48.466Z,2.98
2022-12-01T13:26:15.219Z,2.97
2022-12-01T13:28:50.165Z,2.87
2022-12-01T13:31:17.057Z,2.82
2022-12-01T13:34:01.258Z,2.92
2022-12-01T13:36:46.204Z,2.98
2022-12-01T13:39:24.833Z,3.01
2022-12-01T13:42:00.816Z,2.98
2022-12-01T13:44:39.511Z,3.09
2022-12-01T13:47:08.589Z,3.11
2022-12-01T13:49:48.676Z,3.04
2022-12-01T13:52:21.483Z,2.89
2022-12-01T13:55:03.194Z,2.88
2022-12-01T13:57:31.892Z,3.02
2022-12-01T13:59:58.235Z,3.04
2022-12-01T14:02:26.083Z,2.98
2022-12-01T14:04:52.719Z,3.04
2022-12-01T14:07:37.597Z,3.09
2022-12-01T14:10:27.597Z,3.14
2022-12-01T14:12:55.976Z,3.17
2022-12-01T14:15:30.010Z,3.19
2022-12-01T14:18:08.288Z,3.07
2022-12-01T14:20:37.752Z,2.95
2022-12-01T14:23:13.162Z,2.88
2022-12-01T14:25:39.890Z,3.01
2022-12-01T14:28:13.816Z,3.04
2022-12-01T14:30:45.548Z,2.98
2022-12-01T14:33:39.549Z,2.93
2022-12-01T14:36:21.176Z,2.92
2022-12-01T14:38:47.745Z,2.88
2022-12-01T14:41:47.544Z,2.79
2022-12-01T14:44:16.279Z,2.88
2022-12-01T14:46:47.969Z,2.77
2022-12-01T14:49:21.891Z,2.77
2022-12-01T14:51:49.939Z,2.79
2022-12-01T14:54:24.252Z,2.80
2022-12-01T14:56:52.007Z,2.72
2022-12-01T14:59:23.075Z,2.71
2022-12-01T15:01:51.321Z,2.61
2022-12-01T15:04:17.943Z,2.54
2022-12-01T15:06:44.307Z,2.66
2022-12-01T15:09:34.640Z,2.72
2022-12-01T15:12:03.794Z,2.82
2022-12-01T15:14:49.031Z,2.73
2022-12-01T15:17:32.634Z,2.77
2022-12-01T15:19:59.018Z,2.76
2022-12-01T15:22:30.316Z,2.81
2022-12-01T15:25:10.861Z,2.77
2022-12-01T15:27:37.337Z,2.82
2022-12-01T15:30:04.577Z,2.85
2022-12-01T15:32:32.124Z,2.84
2022-12-01T15:35:01.897Z,2.72
2022-12-01T15:37:28.616Z,2.79
2022-12-01T15:40:11.888Z,2.76
2022-12-01T15:42:43.668Z,2.73
2022-12-01T15:45:20.042Z,2.79
2022-12-01T15:47:50.874Z,2.85
2022-12-01T15:50:42.669Z,2.70
2022-12-01T15:53:33.284Z,2.75
2022-12-01T15:56:00.577Z,2.83
2022-12-01T15:58:30.160Z,2.84
2022-12-01T16:01:05.380Z,2.87
2022-12-01T16:03:32.462Z,2.89
2022-12-01T16:05:58.887Z,2.90
2022-12-01T16:08:26.959Z,2.82
2022-12-01T16:11:12.975Z,2.87
2022-12-01T16:13:49.181Z,2.84
2022-12-01T16:16:43.552Z,2.86
2022-12-01T16:19:09.920Z,2.84
2022-12-01T16:22:18.498Z,2.80
2022-12-01T16:24:52.644Z,2.88
2022-12-01T16:27:23.264Z,2.83
2022-12-01T16:30:12.610Z,2.82
2022-12-01T16:32:40.471Z,2.85
2022-12-01T16:35:21.228Z,2.77
2022-12-01T16:37:47.588Z,2.84
2022-12-01T16:40:14.837Z,2.81
2022-12-01T16:42:41.192Z,2.80
2022-12-01T16:45:09.809Z,2.83
2022-12-01T16:47:36.280Z,2.79
2022-12-01T16:50:02.801Z,2.68
2022-12-01T16:52:44.304Z,2.72
2022-12-01T16:55:27.357Z,2.76
2022-12-01T16:57:55.261Z,2.73
2022-12-01T17:00:22.530Z,2.64
2022-12-01T17:02:49.026Z,2.62
2022-12-01T17:05:15.504Z,2.70
2022-12-01T17:07:41.989Z,2.70
2022-12-01T17:10:08.829Z,2.72
2022-12-01T17:12:35.214Z,2.72
2022-12-01T17:15:01.812Z,2.67
2022-12-01T17:17:29.409Z,2.69
2022-12-01T17:19:55.907Z,2.60
2022-12-01T17:22:22.328Z,2.61
2022-12-01T17:24:49.184Z,2.54
2022-12-01T17:27:15.807Z,2.50
2022-12-01T17:29:46.101Z,2.53
2022-12-01T17:32:13.633Z,2.59
2022-12-01T17:34:40.195Z,2.48
2022-12-01T17:37:06.576Z,2.49
2022-12-01T17:39:32.975Z,2.46
2022-12-01T17:41:59.329Z,2.49
2022-12-01T17:44:25.669Z,2.52
2022-12-01T17:46:52.110Z,2.57
2022-12-01T17:49:18.631Z,2.58
2022-12-01T17:51:45.055Z,2.61
2022-12-01T17:54:11.482Z,2.63
2022-12-01T17:56:37.856Z,2.68
2022-12-01T17:59:04.205Z,2.66
2022-12-01T18:01:30.906Z,2.68
2022-12-01T18:03:57.674Z,2.70
2022-12-01T18:06:25.496Z,2.75
2022-12-01T18:08:51.852Z,2.77
2022-12-01T18:11:18.236Z,2.68
2022-12-01T18:13:46.753Z,2.71
2022-12-01T18:16:14.516Z,2.70
2022-12-01T18:18:41.044Z,2.67
2022-12-01T18:21:08.419Z,2.72
2022-12-01T18:23:34.876Z,2.72
2022-12-01T18:26:15.678Z,2.66
2022-12-01T18:28:43.019Z,2.64
2022-12-01T18:31:14.591Z,2.69
2022-12-01T18:33:42.069Z,2.65
2022-12-01T18:36:26.537Z,2.73
2022-12-01T18:38:54.371Z,2.66
2022-12-01T18:41:20.737Z,2.62
2022-12-01T18:43:47.112Z,2.64
2022-12-01T18:46:14.702Z,2.62
2022-12-01T18:48:45.750Z,2.60
2022-12-01T18:51:12.354Z,2.62
2022-12-01T18:53:38.787Z,2.62
2022-12-01T18:56:06.708Z,2.62
2022-12-01T18:58:33.162Z,2.55
2022-12-01T19:01:00.229Z,2.54
2022-12-01T19:03:33.080Z,2.55
2022-12-01T19:05:59.452Z,2.50
2022-12-01T19:08:25.781Z,2.55
2022-12-01T19:11:02.043Z,2.50
2022-12-01T19:13:29.691Z,2.54
2022-12-01T19:15:56.181Z,2.57
2022-12-01T19:18:22.596Z,2.56
2022-12-01T19:20:48.999Z,2.50
2022-12-01T19:23:15.339Z,2.54
2022-12-01T19:25:42.825Z,2.52
2022-12-01T19:28:09.255Z,2.46
2022-12-01T19:30:35.598Z,2.40
2022-12-01T19:33:02.022Z,2.50
2022-12-01T19:35:28.409Z,2.46
2022-12-01T19:37:54.775Z,2.49
2022-12-01T19:40:21.255Z,2.45
2022-12-01T19:42:47.643Z,2.42
2022-12-01T19:45:13.985Z,2.42
2022-12-01T19:47:40.383Z,2.45
2022-12-01T19:50:07.289Z,2.38
2022-12-01T19:52:35.954Z,2.27
2022-12-01T19:55:02.497Z,2.26
2022-12-01T19:57:28.884Z,2.22
2022-12-01T19:59:55.240Z,2.30
2022-12-01T20:02:28.802Z,2.32
2022-12-01T20:04:56.511Z,2.27
2022-12-01T20:07:22.967Z,2.14
2022-12-01T20:09:50.173Z,2.05
2022-12-01T20:12:16.888Z,2.05
2022-12-01T20:14:43.276Z,2.04
2022-12-01T20:17:15.544Z,2.03
2022-12-01T20:19:42.289Z,2.04
2022-12-01T20:22:08.670Z,2.03
2022-12-01T20:24:35.877Z,2.08
2022-12-01T20:27:02.233Z,2.09
2022-12-01T20:29:29.027Z,2.12
2022-12-01T20:31:56.563Z,2.08
2022-12-01T20:34:26.600Z,2.13
2022-12-01T20:36:53.399Z,2.08
2022-12-01T20:39:19.979Z,2.10
2022-12-01T20:41:46.632Z,1.95
2022-12-01T20:44:13.434Z,2.02
2022-12-01T20:46:40.983Z,2.07
2022-12-01T20:49:07.448Z,2.02
2022-12-01T20:51:34.528Z,2.02
2022-12-01T20:56:54.223Z,1.86
2022-12-01T20:59:20.572Z,1.93
2022-12-01T21:01:46.983Z,1.99
2022-12-01T21:04:13.378Z,1.95
2022-12-01T21:06:39.804Z,2.08
2022-12-01T21:09:07.378Z,2.14
2022-12-01T21:11:55.134Z,2.00
2022-12-01T21:14:43.422Z,2.00
2022-12-01T21:17:27.967Z,2.11
2022-12-01T21:20:02.452Z,2.06
2022-12-01T21:22:28.850Z,1.96
2022-12-01T21:25:01.201Z,2.03
2022-12-01T21:27:27.577Z,2.08
2022-12-01T21:29:54.166Z,2.11
2022-12-01T21:32:31.271Z,2.02
2022-12-01T21:35:01.317Z,1.99
2022-12-01T21:37:27.718Z,1.99
2022-12-01T21:39:55.985Z,2.00
2022-12-01T21:42:25.241Z,2.02
2022-12-01T21:44:51.933Z,2.06
2022-12-01T21:47:22.937Z,1.99
2022-12-01T21:49:51.453Z,1.94
2022-12-01T21:52:25.004Z,2.03
2022-12-01T21:54:51.811Z,2.01
2022-12-01T21:57:25.245Z,2.02
2022-12-01T21:59:51.989Z,2.05
2022-12-01T22:02:31.017Z,1.99
2022-12-01T22:04:58.511Z,1.99
2022-12-01T22:07:26.907Z,1.94
2022-12-01T22:09:53.313Z,1.92
2022-12-01T22:12:24.559Z,1.94
2022-12-01T22:14:51.157Z,1.88
2022-12-01T22:17:21.057Z,1.89
2022-12-01T22:20:02.779Z,1.90
2022-12-01T22:22:29.712Z,1.91
2022-12-01T22:25:22.940Z,1.91
2022-12-01T22:27:49.308Z,1.77
2022-12-01T22:30:20.862Z,1.80
2022-12-01T22:32:57.118Z,1.88
2022-12-01T22:35:48.834Z,1.95
2022-12-01T22:38:23.906Z,1.90
2022-12-01T22:41:08.603Z,1.91
2022-12-01T22:43:41.312Z,1.99
2022-12-01T22:46:19.802Z,2.02
2022-12-01T22:48:47.955Z,1.85
2022-12-01T22:51:14.383Z,1.88
2022-12-01T22:53:41.585Z,1.93
2022-12-01T22:56:38.568Z,1.73
2022-12-01T22:59:29.501Z,1.77
2022-12-01T23:01:57.541Z,1.77
2022-12-01T23:04:29.118Z,1.83
2022-12-01T23:06:56.961Z,1.78
2022-12-01T23:09:27.273Z,1.77
2022-12-01T23:12:09.833Z,1.80
2022-12-01T23:14:47.809Z,1.84
2022-12-01T23:17:28.142Z,1.81
2022-12-01T23:20:28.269Z,1.78
2022-12-01T23:22:55.877Z,1.61
2022-12-01T23:25:23.282Z,1.73
2022-12-01T23:27:50.634Z,1.72
2022-12-01T23:30:17.863Z,1.71
2022-12-01T23:32:44.276Z,1.77
2022-12-01T23:35:14.593Z,1.84
2022-12-01T23:37:41.705Z,1.79
2022-12-01T23:40:32.974Z,1.65
2022-12-01T23:43:25.375Z,1.58
2022-12-01T23:46:02.330Z,1.60
2022-12-01T23:48:36.080Z,1.55
2022-12-01T23:51:02.805Z,1.61
2022-12-01T23:53:31.345Z,1.45
2022-12-01T23:56:02.326Z,1.36
2022-12-01T23:58:28.665Z,1.45
